Petropavlovsk, Kazakhstan
Current Conditions -  °F | °C
As of 5:30 PM on Saturday 20 Dec 2014 (Local Time) from UACP Reporting Station
Clear Clear  
Wind Chill:   Ceiling: Unl
Heat Index: 12°   Visibility: 6mi
Dew Point:   Wind: 9mph
Humidity: 85%   Direction: 190°S
Pressure: 30.06"   Gusts: NA
Location:  54.87°N, 69.14°E
Report Text: UACP 201130Z 19004MPS CAVOK M11/M13 Q1018 R23/4/0545 NOSIG RMKQFE751/1001
Loading
Personal Weather Stations






























Interactive Weather Map New forecast layout! Learn more

10-Day Weather Forecast

Advertisements
Track Severe Weather on mobile